createdAt,value
2022-12-26T00:00:23.869Z,0.00
2022-12-26T00:01:23.787Z,0.00
2022-12-26T00:02:23.835Z,0.00
2022-12-26T00:03:23.892Z,0.00
2022-12-26T00:04:51.388Z,0.00
2022-12-26T00:05:23.737Z,0.00
2022-12-26T00:06:23.761Z,0.00
2022-12-26T00:07:23.753Z,0.00
2022-12-26T00:08:23.750Z,0.00
2022-12-26T00:09:23.749Z,0.00
2022-12-26T00:10:23.727Z,0.00
2022-12-26T00:11:23.718Z,0.00
2022-12-26T00:12:23.790Z,0.00
2022-12-26T00:13:39.953Z,0.00
2022-12-26T00:14:23.687Z,0.00
2022-12-26T00:15:23.690Z,0.00
2022-12-26T00:16:23.785Z,0.00
2022-12-26T00:17:23.675Z,0.00
2022-12-26T00:18:23.683Z,0.00
2022-12-26T00:19:23.665Z,0.00
2022-12-26T00:20:23.680Z,0.00
2022-12-26T00:21:23.650Z,0.00
2022-12-26T00:22:23.656Z,0.00
2022-12-26T00:23:23.645Z,0.00
2022-12-26T00:24:23.664Z,0.00
2022-12-26T00:25:23.629Z,0.00
2022-12-26T00:26:23.628Z,0.00
2022-12-26T00:27:23.625Z,0.00
2022-12-26T00:28:23.630Z,0.00
2022-12-26T00:29:23.610Z,0.00
2022-12-26T00:30:23.617Z,0.00
2022-12-26T00:31:23.756Z,0.00
2022-12-26T00:32:23.611Z,0.00
2022-12-26T00:33:23.613Z,0.00
2022-12-26T00:34:23.579Z,0.00
2022-12-26T00:35:23.577Z,0.00
2022-12-26T00:36:23.605Z,0.00
2022-12-26T00:37:23.576Z,0.00
2022-12-26T00:38:23.574Z,0.00
2022-12-26T00:39:23.579Z,0.00
2022-12-26T00:40:23.555Z,0.00
2022-12-26T00:41:23.560Z,0.00
2022-12-26T00:42:23.558Z,0.00
2022-12-26T00:43:23.536Z,0.00
2022-12-26T00:44:23.530Z,0.00
2022-12-26T00:45:23.526Z,0.00
2022-12-26T00:46:23.607Z,0.00
2022-12-26T00:47:23.520Z,0.00
2022-12-26T00:48:23.517Z,0.00
2022-12-26T00:49:23.530Z,0.00
2022-12-26T00:50:23.517Z,0.00
2022-12-26T00:51:23.497Z,0.00
2022-12-26T00:52:23.487Z,0.00
2022-12-26T00:53:23.485Z,0.00
2022-12-26T00:54:23.523Z,0.00
2022-12-26T00:55:23.475Z,0.00
2022-12-26T00:56:23.485Z,0.00
2022-12-26T00:57:23.462Z,0.00
2022-12-26T00:58:23.458Z,0.00
2022-12-26T00:59:23.467Z,0.00
2022-12-26T01:00:23.444Z,0.00
2022-12-26T01:01:23.632Z,0.00
2022-12-26T01:02:23.575Z,0.00
2022-12-26T01:03:23.494Z,0.00
2022-12-26T01:04:23.447Z,0.00
2022-12-26T01:05:23.436Z,0.00
2022-12-26T01:06:23.415Z,0.00
2022-12-26T01:07:23.407Z,0.00
2022-12-26T01:08:24.982Z,0.00
2022-12-26T01:09:23.395Z,0.00
2022-12-26T01:10:23.401Z,0.00
2022-12-26T01:11:23.394Z,0.00
2022-12-26T01:12:23.407Z,0.00
2022-12-26T01:13:23.390Z,0.00
2022-12-26T01:14:23.359Z,0.00
2022-12-26T01:15:23.368Z,0.00
2022-12-26T01:16:23.450Z,0.00
2022-12-26T01:17:23.414Z,0.00
2022-12-26T01:18:23.347Z,0.00
2022-12-26T01:19:23.351Z,0.00
2022-12-26T01:20:23.342Z,0.00
2022-12-26T01:21:23.325Z,0.00
2022-12-26T01:22:23.330Z,0.00
2022-12-26T01:23:23.333Z,0.00
2022-12-26T01:24:23.325Z,0.00
2022-12-26T01:25:23.309Z,0.00
2022-12-26T01:26:23.323Z,0.00
2022-12-26T01:27:23.297Z,0.00
2022-12-26T01:28:23.300Z,0.00
2022-12-26T01:29:23.305Z,0.00
2022-12-26T01:30:23.292Z,0.00
2022-12-26T01:31:23.363Z,0.00
2022-12-26T01:32:23.271Z,0.00
2022-12-26T01:33:23.271Z,0.00
2022-12-26T01:34:23.262Z,0.00
2022-12-26T01:35:23.329Z,0.00
2022-12-26T01:36:23.303Z,0.00
2022-12-26T01:37:23.281Z,0.00
2022-12-26T01:38:23.246Z,0.00
2022-12-26T01:39:23.237Z,0.00
2022-12-26T01:40:23.232Z,0.00
2022-12-26T01:41:23.245Z,0.00
2022-12-26T01:42:23.214Z,0.00
2022-12-26T01:43:23.229Z,0.00
2022-12-26T01:44:23.202Z,0.00
2022-12-26T01:45:23.209Z,0.00
2022-12-26T01:46:23.292Z,0.00
2022-12-26T01:47:23.218Z,0.00
2022-12-26T01:48:23.193Z,0.00
2022-12-26T01:49:23.184Z,0.00
2022-12-26T01:50:23.188Z,0.00
2022-12-26T01:51:23.173Z,0.00
2022-12-26T01:52:23.158Z,0.00
2022-12-26T01:53:23.165Z,0.00
2022-12-26T01:54:37.210Z,0.00
2022-12-26T01:55:23.166Z,0.00
2022-12-26T01:56:23.145Z,0.00
2022-12-26T01:57:23.135Z,0.00
2022-12-26T01:58:23.138Z,0.00
2022-12-26T01:59:23.131Z,0.00
2022-12-26T02:00:23.122Z,0.00
2022-12-26T02:01:23.281Z,0.00
2022-12-26T02:02:23.263Z,0.00
2022-12-26T02:03:23.177Z,0.00
2022-12-26T02:04:23.111Z,0.00
2022-12-26T02:05:23.144Z,0.00
2022-12-26T02:06:23.108Z,0.00
2022-12-26T02:07:23.097Z,0.00
2022-12-26T02:08:23.081Z,0.00
2022-12-26T02:09:23.103Z,0.00
2022-12-26T02:10:23.071Z,0.00
2022-12-26T02:11:23.090Z,0.00
2022-12-26T02:12:35.860Z,0.00
2022-12-26T02:13:23.068Z,0.00
2022-12-26T02:14:23.049Z,0.00
2022-12-26T02:15:23.094Z,0.00
2022-12-26T02:16:23.140Z,0.00
2022-12-26T02:17:23.032Z,0.00
2022-12-26T02:18:23.037Z,0.00
2022-12-26T02:19:23.036Z,0.00
2022-12-26T02:20:23.039Z,0.00
2022-12-26T02:21:23.031Z,0.00
2022-12-26T02:22:23.004Z,0.00
2022-12-26T02:23:23.005Z,0.00
2022-12-26T02:24:22.993Z,0.00
2022-12-26T02:25:22.989Z,0.00
2022-12-26T02:26:22.989Z,0.00
2022-12-26T02:27:22.991Z,0.00
2022-12-26T02:28:23.000Z,0.00
2022-12-26T02:29:22.984Z,0.00
2022-12-26T02:30:22.957Z,0.00
2022-12-26T02:31:23.008Z,0.00
2022-12-26T02:32:22.954Z,0.00
2022-12-26T02:33:22.965Z,0.00
2022-12-26T02:34:22.944Z,0.00
2022-12-26T02:35:22.943Z,0.00
2022-12-26T02:36:22.942Z,0.00
2022-12-26T02:37:22.929Z,0.00
2022-12-26T02:38:22.932Z,0.00
2022-12-26T02:39:44.932Z,0.00
2022-12-26T02:40:22.913Z,0.00
2022-12-26T02:41:22.918Z,0.00
2022-12-26T02:42:22.901Z,0.00
2022-12-26T02:43:22.933Z,0.00
2022-12-26T02:44:22.885Z,0.00
2022-12-26T02:45:22.890Z,0.00
2022-12-26T02:46:23.001Z,0.00
2022-12-26T02:47:22.876Z,0.00
2022-12-26T02:48:22.931Z,0.00
2022-12-26T02:49:22.893Z,0.00
2022-12-26T02:50:22.964Z,0.00
2022-12-26T02:51:22.863Z,0.00
2022-12-26T02:52:22.843Z,0.00
2022-12-26T02:53:22.855Z,0.00
2022-12-26T02:54:22.878Z,0.00
2022-12-26T02:55:22.842Z,0.00
2022-12-26T02:56:22.824Z,0.00
2022-12-26T02:57:22.826Z,0.00
2022-12-26T02:58:22.842Z,0.00
2022-12-26T02:59:55.159Z,0.00
2022-12-26T03:00:22.803Z,0.00
2022-12-26T03:01:22.909Z,0.00
2022-12-26T03:02:22.973Z,0.00
2022-12-26T03:03:22.851Z,0.00
2022-12-26T03:04:22.791Z,0.00
2022-12-26T03:05:22.776Z,0.00
2022-12-26T03:06:22.776Z,0.00
2022-12-26T03:07:22.776Z,0.00
2022-12-26T03:08:22.757Z,0.00
2022-12-26T03:09:22.763Z,0.00
2022-12-26T03:10:22.774Z,0.00
2022-12-26T03:11:22.762Z,0.00
2022-12-26T03:12:22.758Z,0.00
2022-12-26T03:13:22.739Z,0.00
2022-12-26T03:14:22.732Z,0.00
2022-12-26T03:15:22.726Z,0.00
2022-12-26T03:16:22.774Z,0.00
2022-12-26T03:17:22.739Z,0.00
2022-12-26T03:18:57.731Z,0.00
2022-12-26T03:19:22.725Z,0.00
2022-12-26T03:20:22.701Z,0.00
2022-12-26T03:21:22.703Z,0.00
2022-12-26T03:22:22.695Z,0.00
2022-12-26T03:23:22.702Z,0.00
2022-12-26T03:24:22.695Z,0.00
2022-12-26T03:25:22.710Z,0.00
2022-12-26T03:26:22.676Z,0.00
2022-12-26T03:27:22.673Z,0.00
2022-12-26T03:28:22.659Z,0.00
2022-12-26T03:29:22.676Z,0.00
2022-12-26T03:30:22.653Z,0.00
2022-12-26T03:31:22.668Z,0.00
2022-12-26T03:32:22.654Z,0.00
2022-12-26T03:33:22.684Z,0.00
2022-12-26T03:34:22.637Z,0.00
2022-12-26T03:35:22.632Z,0.00
2022-12-26T03:36:22.628Z,0.00
2022-12-26T03:37:22.627Z,0.00
2022-12-26T03:38:22.608Z,0.00
2022-12-26T03:39:22.611Z,0.00
2022-12-26T03:40:22.598Z,0.00
2022-12-26T03:41:22.590Z,0.00
2022-12-26T03:42:22.591Z,0.00
2022-12-26T03:43:22.591Z,0.00
2022-12-26T03:44:22.583Z,0.00
2022-12-26T03:45:22.587Z,0.00
2022-12-26T03:46:22.608Z,0.00
2022-12-26T03:47:22.590Z,0.00
2022-12-26T03:48:22.563Z,0.00
2022-12-26T03:49:22.548Z,0.00
2022-12-26T03:50:22.546Z,0.00
2022-12-26T03:51:22.545Z,0.00
2022-12-26T03:52:22.586Z,0.00
2022-12-26T03:53:22.561Z,0.00
2022-12-26T03:54:22.555Z,0.00
2022-12-26T03:55:22.531Z,0.00
2022-12-26T03:56:22.515Z,0.00
2022-12-26T03:57:22.535Z,0.00
2022-12-26T03:58:22.512Z,0.00
2022-12-26T03:59:22.588Z,0.00
2022-12-26T04:00:22.502Z,0.00
2022-12-26T04:01:22.579Z,0.00
2022-12-26T04:02:22.697Z,0.00
2022-12-26T04:03:22.515Z,0.00
2022-12-26T04:04:22.478Z,0.00
2022-12-26T04:05:22.497Z,0.00
2022-12-26T04:06:22.478Z,0.00
2022-12-26T04:07:22.475Z,0.00
2022-12-26T04:08:22.458Z,0.00
2022-12-26T04:09:22.462Z,0.00
2022-12-26T04:10:22.462Z,0.00
2022-12-26T04:11:22.449Z,0.00
2022-12-26T04:12:22.438Z,0.00
2022-12-26T04:13:22.430Z,0.00
2022-12-26T04:14:22.435Z,0.00
2022-12-26T04:15:22.434Z,0.00
2022-12-26T04:16:22.462Z,0.00
2022-12-26T04:17:22.418Z,0.00
2022-12-26T04:18:22.412Z,0.00
2022-12-26T04:19:22.408Z,0.00
2022-12-26T04:20:22.410Z,0.00
2022-12-26T04:21:22.402Z,0.00
2022-12-26T04:22:22.414Z,0.00
2022-12-26T04:23:22.390Z,0.00
2022-12-26T04:24:22.381Z,0.00
2022-12-26T04:25:22.370Z,0.00
2022-12-26T04:26:22.377Z,0.00
2022-12-26T04:27:22.381Z,0.00
2022-12-26T04:28:22.371Z,0.00
2022-12-26T04:29:22.359Z,0.00
2022-12-26T04:30:22.400Z,0.00
2022-12-26T04:31:22.455Z,0.00
2022-12-26T04:32:22.343Z,0.00
2022-12-26T04:33:22.365Z,0.00
2022-12-26T04:34:22.338Z,0.00
2022-12-26T04:35:22.337Z,0.00
2022-12-26T04:36:22.324Z,0.00
2022-12-26T04:37:22.334Z,0.00
2022-12-26T04:38:22.306Z,0.00
2022-12-26T04:39:22.297Z,0.00
2022-12-26T04:40:22.288Z,0.00
2022-12-26T04:41:22.290Z,0.00
2022-12-26T04:42:22.281Z,0.00
2022-12-26T04:43:49.822Z,0.00
2022-12-26T04:44:22.283Z,0.00
2022-12-26T04:45:22.284Z,0.00
2022-12-26T04:46:22.321Z,0.00
2022-12-26T04:47:22.257Z,0.00
2022-12-26T04:48:22.252Z,0.00
2022-12-26T04:49:22.250Z,0.00
2022-12-26T04:50:22.233Z,0.00
2022-12-26T04:51:22.237Z,0.00
2022-12-26T04:52:22.246Z,0.00
2022-12-26T04:53:22.237Z,0.00
2022-12-26T04:54:22.234Z,0.00
2022-12-26T04:55:22.229Z,0.00
2022-12-26T04:56:22.213Z,0.00
2022-12-26T04:57:22.210Z,0.00
2022-12-26T04:58:22.204Z,0.00
2022-12-26T04:59:22.204Z,0.00
2022-12-26T05:00:22.198Z,0.00
2022-12-26T05:01:22.349Z,0.00
2022-12-26T05:02:22.266Z,0.00
2022-12-26T05:03:22.258Z,0.00
2022-12-26T05:04:22.175Z,0.00
2022-12-26T05:05:22.171Z,0.00
2022-12-26T05:06:22.157Z,0.00
2022-12-26T05:07:22.156Z,0.00
2022-12-26T05:08:22.156Z,0.00
2022-12-26T05:09:22.169Z,0.00
2022-12-26T05:10:22.176Z,0.00
2022-12-26T05:11:22.139Z,0.00
2022-12-26T05:12:22.136Z,0.00
2022-12-26T05:13:22.118Z,0.00
2022-12-26T05:14:22.147Z,0.00
2022-12-26T05:15:22.117Z,0.00
2022-12-26T05:16:22.166Z,0.00
2022-12-26T05:17:22.116Z,0.00
2022-12-26T05:18:22.115Z,0.00
2022-12-26T05:19:22.106Z,0.00
2022-12-26T05:20:22.110Z,0.00
2022-12-26T05:21:22.082Z,0.00
2022-12-26T05:22:22.107Z,0.00
2022-12-26T05:23:22.107Z,0.00
2022-12-26T05:24:22.082Z,0.00
2022-12-26T05:25:22.080Z,0.00
2022-12-26T05:26:22.078Z,0.00
2022-12-26T05:27:22.064Z,0.00
2022-12-26T05:28:22.054Z,0.00
2022-12-26T05:29:22.049Z,0.00
2022-12-26T05:30:22.047Z,0.00
2022-12-26T05:31:22.078Z,0.00
2022-12-26T05:32:22.033Z,0.00
2022-12-26T05:33:22.023Z,0.00
2022-12-26T05:34:22.029Z,0.00
2022-12-26T05:35:22.050Z,0.00
2022-12-26T05:36:22.027Z,0.00
2022-12-26T05:37:21.997Z,0.00
2022-12-26T05:38:22.001Z,0.00
2022-12-26T05:39:21.996Z,0.00
2022-12-26T05:40:21.994Z,0.00
2022-12-26T05:41:21.992Z,0.00
2022-12-26T05:42:21.992Z,0.00
2022-12-26T05:43:22.017Z,0.00
2022-12-26T05:44:21.982Z,0.00
2022-12-26T05:45:21.975Z,0.00
2022-12-26T05:46:21.979Z,0.00
2022-12-26T05:47:21.955Z,0.00
2022-12-26T05:48:21.950Z,0.00
2022-12-26T05:49:21.956Z,0.00
2022-12-26T05:50:21.954Z,0.00
2022-12-26T05:51:21.960Z,0.00
2022-12-26T05:52:21.959Z,0.00
2022-12-26T05:53:21.925Z,0.00
2022-12-26T05:54:21.923Z,0.00
2022-12-26T05:55:22.011Z,0.00
2022-12-26T05:56:21.917Z,0.00
2022-12-26T05:57:21.918Z,0.00
2022-12-26T05:58:21.905Z,0.00
2022-12-26T05:59:21.903Z,0.00
2022-12-26T06:00:21.949Z,0.00
2022-12-26T06:01:21.934Z,0.00
2022-12-26T06:02:21.972Z,0.00
2022-12-26T06:03:22.035Z,0.00
2022-12-26T06:04:21.875Z,0.00
2022-12-26T06:05:21.867Z,0.00
2022-12-26T06:06:21.874Z,0.00
2022-12-26T06:07:21.874Z,0.00
2022-12-26T06:08:21.866Z,0.00
2022-12-26T06:09:21.881Z,0.00
2022-12-26T06:10:21.864Z,0.00
2022-12-26T06:11:21.833Z,0.00
2022-12-26T06:12:21.852Z,0.00
2022-12-26T06:13:21.833Z,0.00
2022-12-26T06:14:21.836Z,0.00
2022-12-26T06:15:21.837Z,0.00
2022-12-26T06:16:21.917Z,0.00
2022-12-26T06:17:21.811Z,0.00
2022-12-26T06:18:21.852Z,0.00
2022-12-26T06:19:21.805Z,0.00
2022-12-26T06:20:21.809Z,0.00
2022-12-26T06:21:21.792Z,0.00
2022-12-26T06:22:21.827Z,0.00
2022-12-26T06:23:21.781Z,0.00
2022-12-26T06:24:21.785Z,0.00
2022-12-26T06:25:21.797Z,0.00
2022-12-26T06:26:21.782Z,0.00
2022-12-26T06:27:21.767Z,0.00
2022-12-26T06:28:21.773Z,0.00
2022-12-26T06:29:21.749Z,0.00
2022-12-26T06:30:21.751Z,0.00
2022-12-26T06:31:21.938Z,0.00
2022-12-26T06:32:21.744Z,0.00
2022-12-26T06:33:21.745Z,0.00
2022-12-26T06:34:21.776Z,0.00
2022-12-26T06:35:21.736Z,0.00
2022-12-26T06:36:21.745Z,0.00
2022-12-26T06:37:21.719Z,0.00
2022-12-26T06:38:21.715Z,0.00
2022-12-26T06:39:21.709Z,0.00
2022-12-26T06:40:21.714Z,0.00
2022-12-26T06:41:21.691Z,0.00
2022-12-26T06:42:21.718Z,0.00
2022-12-26T06:43:21.695Z,4.00
2022-12-26T06:44:21.703Z,4.00
2022-12-26T06:45:21.689Z,0.00
2022-12-26T06:46:21.756Z,0.00
2022-12-26T06:47:21.672Z,4.00
2022-12-26T06:48:21.675Z,4.00
2022-12-26T06:49:22.570Z,0.00
2022-12-26T06:50:21.696Z,4.00
2022-12-26T06:51:21.655Z,4.00
2022-12-26T06:52:21.638Z,8.00
2022-12-26T06:53:21.659Z,8.00
2022-12-26T06:54:21.639Z,12.00
2022-12-26T06:55:21.640Z,12.00
2022-12-26T06:56:21.635Z,16.00
2022-12-26T06:57:21.638Z,20.00
2022-12-26T06:58:21.644Z,28.00
2022-12-26T06:59:21.611Z,24.00
2022-12-26T07:00:21.621Z,16.00
2022-12-26T07:01:21.722Z,16.00
2022-12-26T07:02:21.763Z,12.00
2022-12-26T07:03:21.595Z,16.00
2022-12-26T07:04:21.585Z,16.00
2022-12-26T07:05:21.584Z,16.00
2022-12-26T07:06:21.590Z,20.00
2022-12-26T07:07:21.570Z,20.00
2022-12-26T07:08:21.561Z,20.00
2022-12-26T07:09:21.564Z,16.00
2022-12-26T07:10:21.582Z,20.00
2022-12-26T07:11:21.567Z,24.00
2022-12-26T07:12:21.551Z,20.00
2022-12-26T07:13:21.533Z,24.00
2022-12-26T07:14:21.550Z,24.00
2022-12-26T07:15:21.522Z,28.00
2022-12-26T07:16:21.615Z,32.00
2022-12-26T07:17:21.519Z,36.00
2022-12-26T07:18:21.527Z,40.00
2022-12-26T07:19:21.525Z,36.00
2022-12-26T07:20:21.521Z,40.00
2022-12-26T07:21:21.515Z,40.00
2022-12-26T07:22:21.496Z,44.00
2022-12-26T07:23:21.496Z,52.00
2022-12-26T07:24:21.506Z,60.00
2022-12-26T07:25:21.481Z,64.00
2022-12-26T07:26:21.491Z,68.00
2022-12-26T07:27:21.474Z,72.00
2022-12-26T07:28:21.473Z,84.00
2022-12-26T07:29:21.472Z,88.00
2022-12-26T07:30:21.460Z,96.00
2022-12-26T07:31:21.513Z,96.00
2022-12-26T07:32:21.463Z,96.00
2022-12-26T07:33:21.443Z,108.00
2022-12-26T07:34:25.147Z,120.00
2022-12-26T07:35:21.452Z,144.00
2022-12-26T07:36:21.443Z,156.00
2022-12-26T07:37:21.424Z,168.00
2022-12-26T07:38:21.445Z,168.00
2022-12-26T07:39:21.482Z,188.00
2022-12-26T07:40:21.438Z,188.00
2022-12-26T07:41:21.424Z,208.00
2022-12-26T07:42:21.405Z,220.00
2022-12-26T07:43:21.411Z,264.00
2022-12-26T07:44:21.412Z,364.00
2022-12-26T07:45:21.395Z,440.00
2022-12-26T07:46:21.407Z,480.00
2022-12-26T07:47:21.391Z,456.00
2022-12-26T07:48:21.375Z,520.00
2022-12-26T07:49:21.374Z,620.00
2022-12-26T07:50:21.362Z,668.00
2022-12-26T07:51:21.362Z,668.00
2022-12-26T07:52:21.357Z,636.00
2022-12-26T07:53:21.372Z,560.00
2022-12-26T07:54:21.358Z,492.00
2022-12-26T07:55:21.363Z,480.00
2022-12-26T07:56:21.359Z,552.00
2022-12-26T07:57:50.584Z,600.00
2022-12-26T07:58:21.333Z,640.00
2022-12-26T07:59:21.321Z,644.00
2022-12-26T08:00:21.323Z,596.00
2022-12-26T08:01:21.429Z,564.00
2022-12-26T08:02:21.578Z,540.00
2022-12-26T08:03:21.387Z,520.00
2022-12-26T08:04:21.307Z,520.00
2022-12-26T08:05:21.310Z,480.00
2022-12-26T08:06:21.351Z,476.00
2022-12-26T08:07:21.289Z,504.00
2022-12-26T08:08:21.293Z,520.00
2022-12-26T08:09:21.280Z,568.00
2022-12-26T08:10:21.279Z,656.00
2022-12-26T08:11:21.309Z,652.00
2022-12-26T08:12:21.286Z,624.00
2022-12-26T08:13:21.256Z,640.00
2022-12-26T08:14:21.256Z,584.00
2022-12-26T08:15:21.246Z,600.00
2022-12-26T08:16:21.325Z,540.00
2022-12-26T08:17:21.270Z,548.00
2022-12-26T08:18:21.242Z,544.00
2022-12-26T08:19:21.227Z,536.00
2022-12-26T08:20:21.231Z,548.00
2022-12-26T08:21:21.210Z,568.00
2022-12-26T08:22:21.222Z,600.00
2022-12-26T08:23:21.223Z,588.00
2022-12-26T08:24:21.211Z,572.00
2022-12-26T08:25:22.158Z,584.00
2022-12-26T08:26:21.216Z,588.00
2022-12-26T08:27:21.187Z,592.00
2022-12-26T08:28:21.199Z,580.00
2022-12-26T08:29:21.183Z,596.00
2022-12-26T08:30:21.185Z,604.00
2022-12-26T08:31:21.326Z,564.00
2022-12-26T08:32:21.165Z,668.00
2022-12-26T08:33:21.163Z,784.00
2022-12-26T08:34:21.160Z,868.00
2022-12-26T08:35:21.164Z,924.00
2022-12-26T08:36:21.170Z,1012.00
2022-12-26T08:37:21.168Z,1068.00
2022-12-26T08:38:21.145Z,1112.00
2022-12-26T08:39:21.139Z,1152.00
2022-12-26T08:40:39.977Z,1064.00
2022-12-26T08:41:21.132Z,908.00
2022-12-26T08:42:21.139Z,832.00
2022-12-26T08:43:45.023Z,860.00
2022-12-26T08:44:28.996Z,964.00
2022-12-26T08:45:21.121Z,1076.00
2022-12-26T08:46:21.131Z,1104.00
2022-12-26T08:47:21.102Z,1188.00
2022-12-26T08:48:21.105Z,1188.00
2022-12-26T08:49:21.091Z,1188.00
2022-12-26T08:50:21.081Z,1196.00
2022-12-26T08:51:21.085Z,1184.00
2022-12-26T08:52:21.077Z,1180.00
2022-12-26T08:53:21.113Z,1172.00
2022-12-26T08:54:21.068Z,1164.00
2022-12-26T08:55:21.059Z,1156.00
2022-12-26T08:56:21.070Z,1144.00
2022-12-26T08:57:21.048Z,1108.00
2022-12-26T08:58:21.145Z,1076.00
2022-12-26T08:59:21.034Z,1056.00
2022-12-26T09:00:21.045Z,1040.00
2022-12-26T09:01:21.167Z,1024.00
2022-12-26T09:02:21.177Z,1032.00
2022-12-26T09:03:21.088Z,1040.00
2022-12-26T09:04:21.039Z,1056.00
2022-12-26T09:05:21.018Z,1060.00
2022-12-26T09:06:21.044Z,1060.00
2022-12-26T09:07:20.997Z,1064.00
2022-12-26T09:08:21.008Z,1068.00
2022-12-26T09:09:21.008Z,1080.00
2022-12-26T09:10:20.990Z,1108.00
2022-12-26T09:11:20.994Z,1160.00
2022-12-26T09:12:21.024Z,1180.00
2022-12-26T09:13:20.971Z,1188.00
2022-12-26T09:14:20.983Z,1192.00
2022-12-26T09:15:20.985Z,1192.00
2022-12-26T09:16:21.037Z,1168.00
2022-12-26T09:17:21.001Z,1144.00
2022-12-26T09:18:20.968Z,1168.00
2022-12-26T09:19:20.967Z,1168.00
2022-12-26T09:20:20.955Z,1176.00
2022-12-26T09:21:20.953Z,1152.00
2022-12-26T09:22:20.966Z,1120.00
2022-12-26T09:23:20.939Z,1116.00
2022-12-26T09:24:20.926Z,1132.00
2022-12-26T09:25:20.938Z,1156.00
2022-12-26T09:26:20.919Z,1172.00
2022-12-26T09:27:20.907Z,1176.00
2022-12-26T09:28:20.926Z,1256.00
2022-12-26T09:29:20.919Z,1324.00
2022-12-26T09:30:20.909Z,1296.00
2022-12-26T09:31:20.976Z,1404.00
2022-12-26T09:32:20.891Z,1468.00
2022-12-26T09:33:20.880Z,1456.00
2022-12-26T09:34:20.897Z,1496.00
2022-12-26T09:35:20.874Z,1556.00
2022-12-26T09:36:20.859Z,1564.00
2022-12-26T09:37:20.922Z,1532.00
2022-12-26T09:38:20.864Z,1560.00
2022-12-26T09:39:20.866Z,1592.00
2022-12-26T09:40:20.847Z,1580.00
2022-12-26T09:41:20.863Z,1596.00
2022-12-26T09:42:20.855Z,1620.00
2022-12-26T09:43:20.845Z,1668.00
2022-12-26T09:44:20.833Z,1704.00
2022-12-26T09:45:20.851Z,1864.00
2022-12-26T09:46:20.897Z,1968.00
2022-12-26T09:47:20.828Z,2000.00
2022-12-26T09:48:20.845Z,2032.00
2022-12-26T09:49:20.835Z,1988.00
2022-12-26T09:50:20.831Z,2100.00
2022-12-26T09:51:20.813Z,2016.00
2022-12-26T09:52:20.796Z,1920.00
2022-12-26T09:53:20.803Z,2120.00
2022-12-26T09:54:20.806Z,2056.00
2022-12-26T09:55:20.796Z,1744.00
2022-12-26T09:57:01.086Z,1928.00
2022-12-26T09:57:20.809Z,1924.00
2022-12-26T09:58:20.771Z,1776.00
2022-12-26T09:59:20.779Z,1512.00
2022-12-26T10:00:20.897Z,1120.00
2022-12-26T10:01:20.919Z,908.00
2022-12-26T10:02:20.901Z,872.00
2022-12-26T10:03:20.763Z,884.00
2022-12-26T10:04:26.610Z,940.00
2022-12-26T10:05:20.766Z,892.00
2022-12-26T10:06:20.746Z,1244.00
2022-12-26T10:07:20.746Z,1344.00
2022-12-26T10:08:20.737Z,1244.00
2022-12-26T10:09:20.750Z,1264.00
2022-12-26T10:10:20.836Z,1328.00
2022-12-26T10:11:20.717Z,1204.00
2022-12-26T10:12:20.734Z,1324.00
2022-12-26T10:13:20.710Z,1456.00
2022-12-26T10:14:22.022Z,1728.00
2022-12-26T10:15:20.754Z,1776.00
2022-12-26T10:16:20.760Z,1852.00
2022-12-26T10:17:20.721Z,2004.00
2022-12-26T10:18:20.729Z,2068.00
2022-12-26T10:19:20.702Z,2004.00
2022-12-26T10:20:20.741Z,1840.00
2022-12-26T10:21:20.690Z,1916.00
2022-12-26T10:22:20.667Z,2112.00
2022-12-26T10:23:20.671Z,2148.00
2022-12-26T10:24:20.691Z,1932.00
2022-12-26T10:25:20.688Z,1784.00
2022-12-26T10:26:20.668Z,1544.00
2022-12-26T10:27:20.645Z,1328.00
2022-12-26T10:28:20.642Z,1572.00
2022-12-26T10:29:20.642Z,1512.00
2022-12-26T10:30:20.694Z,1104.00
2022-12-26T10:31:20.711Z,1016.00
2022-12-26T10:32:24.471Z,1076.00
2022-12-26T10:33:20.649Z,1184.00
2022-12-26T10:34:20.630Z,1140.00
2022-12-26T10:35:20.616Z,1032.00
2022-12-26T10:36:20.630Z,1140.00
2022-12-26T10:37:20.604Z,1232.00
2022-12-26T10:38:25.572Z,1148.00
2022-12-26T10:39:20.603Z,1152.00
2022-12-26T10:40:20.599Z,1036.00
2022-12-26T10:41:20.612Z,1032.00
2022-12-26T10:42:20.593Z,1024.00
2022-12-26T10:43:20.616Z,984.00
2022-12-26T10:44:24.080Z,844.00
2022-12-26T10:45:20.575Z,844.00
2022-12-26T10:46:20.583Z,812.00
2022-12-26T10:47:20.567Z,880.00
2022-12-26T10:48:20.552Z,956.00
2022-12-26T10:49:20.568Z,1004.00
2022-12-26T10:50:26.964Z,964.00
2022-12-26T10:51:20.568Z,1024.00
2022-12-26T10:52:20.560Z,1036.00
2022-12-26T10:53:20.569Z,1032.00
2022-12-26T10:54:20.535Z,1004.00
2022-12-26T10:55:29.060Z,1024.00
2022-12-26T10:56:20.533Z,1028.00
2022-12-26T10:57:20.542Z,1040.00
2022-12-26T10:58:20.517Z,1048.00
2022-12-26T10:59:20.589Z,1036.00
2022-12-26T11:00:20.503Z,1020.00
2022-12-26T11:01:20.627Z,996.00
2022-12-26T11:02:20.622Z,956.00
2022-12-26T11:03:20.701Z,916.00
2022-12-26T11:05:10.522Z,888.00
2022-12-26T11:05:48.829Z,864.00
2022-12-26T11:06:20.509Z,852.00
2022-12-26T11:07:20.493Z,844.00
2022-12-26T11:08:20.473Z,840.00
2022-12-26T11:09:20.473Z,828.00
2022-12-26T11:10:20.481Z,816.00
2022-12-26T11:11:20.471Z,820.00
2022-12-26T11:12:20.463Z,836.00
2022-12-26T11:13:20.460Z,844.00
2022-12-26T11:14:20.450Z,852.00
2022-12-26T11:15:20.471Z,848.00
2022-12-26T11:16:20.486Z,844.00
2022-12-26T11:17:20.439Z,860.00
2022-12-26T11:18:20.434Z,864.00
2022-12-26T11:19:20.449Z,856.00
2022-12-26T11:20:20.437Z,836.00
2022-12-26T11:21:20.441Z,792.00
2022-12-26T11:22:20.411Z,760.00
2022-12-26T11:23:20.416Z,760.00
2022-12-26T11:24:20.471Z,760.00
2022-12-26T11:25:20.398Z,744.00
2022-12-26T11:26:20.407Z,720.00
2022-12-26T11:27:20.483Z,692.00
2022-12-26T11:28:20.407Z,692.00
2022-12-26T11:29:20.403Z,704.00
2022-12-26T11:30:20.392Z,700.00
2022-12-26T11:31:20.425Z,676.00
2022-12-26T11:32:20.379Z,648.00
2022-12-26T11:33:20.414Z,616.00
2022-12-26T11:34:20.359Z,592.00
2022-12-26T11:35:20.380Z,564.00
2022-12-26T11:36:20.367Z,548.00
2022-12-26T11:37:20.369Z,548.00
2022-12-26T11:38:20.353Z,548.00
2022-12-26T11:39:20.343Z,564.00
2022-12-26T11:40:20.340Z,592.00
2022-12-26T11:41:20.327Z,624.00
2022-12-26T11:42:20.315Z,668.00
2022-12-26T11:43:20.322Z,692.00
2022-12-26T11:44:20.315Z,700.00
2022-12-26T11:45:20.333Z,708.00
2022-12-26T11:46:20.332Z,720.00
2022-12-26T11:47:20.308Z,740.00
2022-12-26T11:48:20.300Z,756.00
2022-12-26T11:49:20.330Z,764.00
2022-12-26T11:50:20.282Z,780.00
2022-12-26T11:51:20.283Z,816.00
2022-12-26T11:52:20.278Z,860.00
2022-12-26T11:53:20.303Z,900.00
2022-12-26T11:54:20.276Z,920.00
2022-12-26T11:55:20.272Z,932.00
2022-12-26T11:56:20.305Z,952.00
2022-12-26T11:57:20.309Z,980.00
2022-12-26T11:58:20.269Z,1000.00
2022-12-26T11:59:20.254Z,1020.00
2022-12-26T12:00:20.285Z,1036.00
2022-12-26T12:01:20.273Z,1048.00
2022-12-26T12:02:20.285Z,1068.00
2022-12-26T12:03:20.298Z,1080.00
2022-12-26T12:04:20.249Z,1068.00
2022-12-26T12:05:20.242Z,1036.00
2022-12-26T12:06:20.213Z,992.00
2022-12-26T12:07:20.218Z,956.00
2022-12-26T12:08:20.217Z,952.00
2022-12-26T12:09:20.220Z,944.00
2022-12-26T12:10:20.215Z,908.00
2022-12-26T12:11:20.226Z,856.00
2022-12-26T12:12:20.224Z,836.00
2022-12-26T12:13:20.203Z,832.00
2022-12-26T12:14:20.204Z,824.00
2022-12-26T12:15:20.233Z,816.00
2022-12-26T12:16:20.248Z,796.00
2022-12-26T12:17:20.214Z,780.00
2022-12-26T12:18:20.176Z,760.00
2022-12-26T12:19:20.221Z,732.00
2022-12-26T12:20:20.185Z,696.00
2022-12-26T12:21:20.170Z,668.00
2022-12-26T12:22:20.160Z,644.00
2022-12-26T12:23:20.204Z,616.00
2022-12-26T12:24:20.167Z,580.00
2022-12-26T12:25:20.145Z,540.00
2022-12-26T12:26:20.196Z,504.00
2022-12-26T12:27:20.183Z,484.00
2022-12-26T12:28:20.190Z,484.00
2022-12-26T12:29:20.136Z,488.00
2022-12-26T12:30:20.156Z,488.00
2022-12-26T12:31:20.197Z,488.00
2022-12-26T12:32:20.131Z,476.00
2022-12-26T12:33:20.140Z,472.00
2022-12-26T12:34:20.114Z,480.00
2022-12-26T12:35:20.143Z,480.00
2022-12-26T12:36:20.118Z,492.00
2022-12-26T12:37:20.114Z,500.00
2022-12-26T12:38:20.092Z,504.00
2022-12-26T12:39:20.085Z,496.00
2022-12-26T12:40:20.081Z,492.00
2022-12-26T12:41:20.072Z,512.00
2022-12-26T12:42:20.059Z,552.00
2022-12-26T12:43:20.059Z,584.00
2022-12-26T12:44:20.071Z,628.00
2022-12-26T12:45:20.097Z,660.00
2022-12-26T12:46:20.085Z,704.00
2022-12-26T12:47:20.075Z,772.00
2022-12-26T12:48:20.059Z,868.00
2022-12-26T12:49:20.058Z,956.00
2022-12-26T12:50:20.049Z,980.00
2022-12-26T12:51:20.027Z,1004.00